createdAt,value
2023-09-23T00:00:20.177Z,8.200000
2023-09-23T00:05:22.776Z,8.000000
2023-09-23T00:10:25.396Z,8.000000
2023-09-23T00:15:27.944Z,8.000000
2023-09-23T00:20:30.876Z,8.800000
2023-09-23T00:25:33.484Z,9.000000
2023-09-23T00:30:15.797Z,8.200000
2023-09-23T00:35:18.288Z,8.000000
2023-09-23T00:40:22.018Z,8.000000
2023-09-23T00:45:23.639Z,8.000000
2023-09-23T00:50:26.445Z,8.000000
2023-09-23T00:55:29.077Z,8.000000
2023-09-23T01:00:32.134Z,8.000000
2023-09-23T01:05:35.616Z,8.000000
2023-09-23T01:10:17.892Z,10.400000
2023-09-23T01:15:20.179Z,11.000000
2023-09-23T01:20:23.352Z,10.214286
2023-09-23T01:25:26.090Z,10.000000
2023-09-23T01:30:28.517Z,7.800000
2023-09-23T01:35:30.794Z,7.000000
2023-09-23T01:40:33.607Z,11.800000
2023-09-23T01:45:15.963Z,13.000000
2023-09-23T01:50:19.396Z,13.000000
2023-09-23T01:55:21.622Z,13.000000
2023-09-23T02:00:24.363Z,10.642857
2023-09-23T02:05:26.756Z,10.000000
2023-09-23T02:10:29.194Z,11.466667
2023-09-23T02:15:31.605Z,12.000000
2023-09-23T02:20:34.590Z,9.600000
2023-09-23T02:25:16.739Z,9.000000
2023-09-23T02:30:19.115Z,9.800000
2023-09-23T02:35:21.874Z,10.000000
2023-09-23T02:40:24.379Z,10.785714
2023-09-23T02:45:26.846Z,11.000000
2023-09-23T02:50:29.372Z,9.533333
2023-09-23T02:55:32.696Z,9.000000
2023-09-23T03:00:34.561Z,10.600000
2023-09-23T03:05:17.090Z,11.000000
2023-09-23T03:10:19.567Z,25.400000
2023-09-23T03:15:22.531Z,29.000000
2023-09-23T03:20:25.552Z,18.000000
2023-09-23T03:25:28.003Z,14.000000
2023-09-23T03:30:30.370Z,10.000000
2023-09-23T03:35:32.935Z,9.000000
2023-09-23T03:40:36.135Z,7.400000
2023-09-23T03:45:18.433Z,7.000000
2023-09-23T03:50:20.764Z,7.800000
2023-09-23T03:55:23.792Z,8.000000
2023-09-23T04:00:26.798Z,12.400000
2023-09-23T04:05:29.529Z,14.000000
2023-09-23T04:10:32.076Z,8.400000
2023-09-23T04:15:34.445Z,7.000000
2023-09-23T04:20:18.129Z,9.400000
2023-09-23T04:25:19.240Z,10.000000
2023-09-23T04:30:21.744Z,11.600000
2023-09-23T04:35:24.214Z,12.000000
2023-09-23T04:40:26.580Z,32.533333
2023-09-23T04:45:29.075Z,40.000000
2023-09-23T04:50:31.580Z,14.400000
2023-09-23T04:55:33.929Z,8.000000
2023-09-23T05:00:16.419Z,10.400000
2023-09-23T05:05:19.167Z,11.000000
2023-09-23T05:10:21.539Z,11.000000
2023-09-23T05:15:23.940Z,11.000000
2023-09-23T05:20:27.502Z,14.666667
2023-09-23T05:25:29.666Z,16.000000
2023-09-23T05:30:32.478Z,8.800000
2023-09-23T05:35:35.642Z,7.000000
2023-09-23T05:40:17.323Z,15.000000
2023-09-23T05:45:20.030Z,17.000000
2023-09-23T05:50:23.451Z,27.214286
2023-09-23T05:55:26.039Z,30.000000
2023-09-23T06:00:28.532Z,13.866667
2023-09-23T06:05:30.946Z,8.000000
2023-09-23T06:10:34.160Z,14.400000
2023-09-23T06:15:36.054Z,16.000000
2023-09-23T06:20:18.809Z,14.400000
2023-09-23T06:25:21.688Z,14.000000
2023-09-23T06:30:25.567Z,7.714286
2023-09-23T06:35:28.204Z,6.000000
2023-09-23T06:40:30.492Z,10.000000
2023-09-23T06:45:33.726Z,11.000000
2023-09-23T06:50:35.740Z,10.200000
2023-09-23T06:55:18.319Z,10.000000
2023-09-23T07:00:21.079Z,11.600000
2023-09-23T07:05:24.266Z,12.000000
2023-09-23T07:10:26.188Z,15.666667
2023-09-23T07:15:29.316Z,17.000000
2023-09-23T07:20:33.096Z,18.600000
2023-09-23T07:25:34.431Z,19.000000
2023-09-23T07:30:18.716Z,12.600000
2023-09-23T07:35:20.564Z,11.000000
2023-09-23T07:40:22.789Z,14.928571
2023-09-23T07:45:37.536Z,16.000000
2023-09-23T07:50:29.083Z,12.333333
2023-09-23T07:55:31.471Z,11.000000
2023-09-23T08:00:33.260Z,11.000000
2023-09-23T08:05:36.041Z,11.000000
2023-09-23T08:10:18.165Z,11.800000
2023-09-23T08:15:20.522Z,12.000000
2023-09-23T08:20:23.291Z,14.357143
2023-09-23T08:25:26.407Z,15.000000
2023-09-23T08:30:29.070Z,16.466667
2023-09-23T08:35:33.586Z,17.000000
2023-09-23T08:40:34.024Z,13.000000
2023-09-23T08:45:16.212Z,12.000000
2023-09-23T08:50:18.739Z,13.600000
2023-09-23T08:55:21.364Z,14.000000
2023-09-23T09:00:23.874Z,14.785714
2023-09-23T09:05:26.786Z,15.000000
2023-09-23T09:10:30.258Z,15.000000
2023-09-23T09:15:32.031Z,15.000000
2023-09-23T09:20:34.753Z,12.600000
2023-09-23T09:25:16.905Z,12.000000
2023-09-23T09:30:19.702Z,16.000000
2023-09-23T09:35:22.696Z,17.000000
2023-09-23T09:40:25.100Z,12.600000
2023-09-23T09:45:27.763Z,11.000000
2023-09-23T09:50:30.295Z,12.600000
2023-09-23T09:55:32.559Z,13.000000
2023-09-23T10:00:35.432Z,13.000000
2023-09-23T10:05:18.186Z,13.000000
2023-09-23T10:10:20.962Z,13.800000
2023-09-23T10:15:24.212Z,14.000000
2023-09-23T10:20:27.040Z,14.733333
2023-09-23T10:25:29.406Z,15.000000
2023-09-23T10:30:31.869Z,11.000000
2023-09-23T10:35:35.668Z,10.000000
2023-09-23T10:40:17.020Z,9.200000
2023-09-23T10:45:19.361Z,9.000000
2023-09-23T10:50:22.242Z,9.785714
2023-09-23T10:55:25.242Z,10.000000
2023-09-23T11:00:28.059Z,13.666667
2023-09-23T11:05:30.704Z,15.000000
2023-09-23T11:10:33.155Z,16.600000
2023-09-23T11:15:15.944Z,17.000000
2023-09-23T11:20:19.101Z,15.400000
2023-09-23T11:25:21.932Z,15.000000
2023-09-23T11:30:24.886Z,11.071429
2023-09-23T11:35:27.974Z,10.000000
2023-09-23T11:40:30.631Z,10.000000
2023-09-23T11:45:34.240Z,10.000000
2023-09-23T11:50:15.912Z,10.000000
2023-09-23T11:55:18.680Z,10.000000
2023-09-23T12:00:22.212Z,9.200000
2023-09-23T12:05:24.288Z,9.000000
2023-09-23T12:10:26.817Z,14.866667
2023-09-23T12:15:29.848Z,17.000000
2023-09-23T12:20:32.949Z,14.600000
2023-09-23T12:25:35.579Z,14.000000
2023-09-23T12:30:17.898Z,10.800000
2023-09-23T12:35:20.625Z,10.000000
2023-09-23T12:40:22.936Z,14.714286
2023-09-23T12:45:26.927Z,16.000000
2023-09-23T12:50:28.358Z,13.066667
2023-09-23T12:55:30.711Z,12.000000
2023-09-23T13:00:33.602Z,13.600000
2023-09-23T13:05:16.234Z,14.000000
2023-09-23T13:10:19.001Z,11.600000
2023-09-23T13:15:21.400Z,11.000000
2023-09-23T13:20:24.833Z,11.785714
2023-09-23T13:25:27.496Z,12.000000
2023-09-23T13:30:30.566Z,13.600000
2023-09-23T13:35:34.159Z,14.000000
2023-09-23T13:40:35.776Z,12.400000
2023-09-23T13:45:18.041Z,12.000000
2023-09-23T13:50:21.125Z,15.200000
2023-09-23T13:55:24.367Z,16.000000
2023-09-23T14:00:27.072Z,13.066667
2023-09-23T14:05:29.809Z,12.000000
2023-09-23T14:10:33.066Z,15.200000
2023-09-23T14:15:36.088Z,16.000000
2023-09-23T14:20:18.469Z,14.400000
2023-09-23T14:25:22.321Z,14.000000
2023-09-23T14:30:25.306Z,16.933333
2023-09-23T14:35:28.317Z,18.000000
2023-09-23T14:40:31.426Z,19.600000
2023-09-23T14:45:35.147Z,20.000000
2023-09-23T14:50:17.548Z,15.200000
2023-09-23T14:55:20.021Z,14.000000
2023-09-23T15:00:23.412Z,16.357143
2023-09-23T15:05:26.832Z,17.000000
2023-09-23T15:10:29.992Z,16.266667
2023-09-23T15:15:33.132Z,16.000000
2023-09-23T15:20:16.257Z,11.200000
2023-09-23T15:25:19.636Z,10.000000
2023-09-23T15:30:22.296Z,11.571429
2023-09-23T15:35:30.354Z,12.000000
2023-09-23T15:40:33.600Z,8.800000
2023-09-23T15:45:16.562Z,8.000000
2023-09-23T15:50:20.316Z,8.000000
2023-09-23T15:55:22.279Z,8.000000
2023-09-23T16:00:24.515Z,10.933333
2023-09-23T16:05:27.128Z,12.000000
2023-09-23T16:10:30.240Z,9.800000
2023-09-23T16:15:33.463Z,9.000000
2023-09-23T16:20:36.024Z,9.800000
2023-09-23T16:25:18.413Z,10.000000
2023-09-23T16:30:21.577Z,14.800000
2023-09-23T16:35:24.742Z,16.000000
2023-09-23T16:40:27.345Z,10.133333
2023-09-23T16:45:30.488Z,8.000000
2023-09-23T16:50:33.981Z,9.600000
2023-09-23T16:55:18.878Z,10.000000
2023-09-23T17:00:18.927Z,10.000000
2023-09-23T17:05:21.356Z,10.000000
2023-09-23T17:10:24.129Z,8.428571
2023-09-23T17:15:26.651Z,8.000000
2023-09-23T17:20:28.853Z,8.733333
2023-09-23T17:25:31.322Z,9.000000
2023-09-23T17:30:34.301Z,10.600000
2023-09-23T17:35:16.975Z,11.000000
2023-09-23T17:40:18.947Z,10.200000
2023-09-23T17:45:21.518Z,10.000000
2023-09-23T17:50:24.711Z,10.785714
2023-09-23T17:55:27.300Z,11.000000
2023-09-23T18:00:30.123Z,10.266667
2023-09-23T18:05:32.786Z,10.000000
2023-09-23T18:10:36.585Z,10.800000
2023-09-23T18:15:17.777Z,11.000000
2023-09-23T18:20:20.440Z,10.200000
2023-09-23T18:25:22.713Z,10.000000
2023-09-23T18:30:25.121Z,9.266667
2023-09-23T18:35:28.137Z,9.000000
2023-09-23T18:40:30.527Z,9.000000
2023-09-23T18:45:33.310Z,9.000000
2023-09-23T18:50:16.054Z,9.000000
2023-09-23T18:55:19.037Z,9.000000
2023-09-23T19:00:22.347Z,8.200000
2023-09-23T19:05:24.921Z,8.000000
2023-09-23T19:10:27.541Z,8.000000
2023-09-23T19:15:30.339Z,8.000000
2023-09-23T19:20:33.474Z,8.000000
2023-09-23T19:25:15.920Z,8.000000
2023-09-23T19:30:19.067Z,8.800000
2023-09-23T19:35:21.841Z,9.000000
2023-09-23T19:40:24.370Z,10.571429
2023-09-23T19:45:27.666Z,11.000000
2023-09-23T19:50:30.309Z,9.400000
2023-09-23T19:55:33.138Z,9.000000
2023-09-23T20:00:36.316Z,9.000000
2023-09-23T20:05:18.630Z,9.000000
2023-09-23T20:10:21.657Z,9.000000
2023-09-23T20:15:24.370Z,9.000000
2023-09-23T20:20:27.671Z,9.000000
2023-09-23T20:25:30.141Z,9.000000
2023-09-23T20:30:35.702Z,8.200000
2023-09-23T20:35:35.904Z,8.000000
2023-09-23T20:40:17.945Z,8.000000
2023-09-23T20:45:20.725Z,8.000000
2023-09-23T20:50:23.485Z,8.000000
2023-09-23T20:55:27.256Z,8.000000
2023-09-23T21:00:28.745Z,8.733333
2023-09-23T21:05:32.908Z,9.000000
2023-09-23T21:10:35.580Z,10.600000
2023-09-23T21:15:18.722Z,11.000000
2023-09-23T21:20:20.218Z,8.600000
2023-09-23T21:25:23.740Z,8.000000
2023-09-23T21:30:26.422Z,7.266667
2023-09-23T21:35:28.821Z,7.000000
2023-09-23T21:40:32.560Z,7.800000
2023-09-23T21:45:35.582Z,8.000000
2023-09-23T21:50:18.657Z,7.200000
2023-09-23T21:55:21.810Z,7.000000
2023-09-23T22:00:24.435Z,7.785714
2023-09-23T22:05:27.455Z,8.000000
2023-09-23T22:10:29.848Z,8.000000
2023-09-23T22:15:33.551Z,8.000000
2023-09-23T22:20:16.393Z,7.200000
2023-09-23T22:25:19.200Z,7.000000
2023-09-23T22:30:21.822Z,7.800000
2023-09-23T22:35:24.442Z,8.000000
2023-09-23T22:40:27.883Z,7.266667
2023-09-23T22:45:38.954Z,7.000000
2023-09-23T22:50:33.670Z,11.000000
2023-09-23T22:55:16.130Z,12.000000
2023-09-23T23:00:19.022Z,8.800000
2023-09-23T23:05:22.221Z,8.000000
2023-09-23T23:10:24.363Z,8.000000
2023-09-23T23:15:27.818Z,8.000000
2023-09-23T23:20:30.856Z,8.000000
2023-09-23T23:25:33.412Z,8.000000
2023-09-23T23:30:16.090Z,7.200000
2023-09-23T23:35:19.621Z,7.000000
2023-09-23T23:40:22.622Z,7.785714
2023-09-23T23:45:25.972Z,8.000000
2023-09-23T23:50:28.748Z,7.266667
2023-09-23T23:55:31.555Z,7.000000
